weather.gov     
National Weather Service

Terminal Aerodrome Forecast
NWS Homepage
This page is being discontinued on March 12, 2014.
The same data is available at this site. Please update your bookmarks.
Thank you, and we apologize for the inconvenience.
Please send an email to SR-SRH.Webmaster@noaa.gov with any concerns.


Current Version
Previous Version:    01  02  03  04  05  06  07  08  09  10  11  12  13  14  15  16  17  18  19  20  21  22  23  24  25  26  27  28  29  30  
   31  32  33  34  35  36  37  38  39  40  41  
[Printable]
427
FTUS43 KDLH 261700
TAFDLH
TAF
KDLH 261720Z 2618/2718 29008KT P6SM SKC
     FM262100 24007KT P6SM SCT080
     FM270000 25010G14KT P6SM VCTS BKN050CB
     FM270400 28008KT P6SM SCT030 BKN100
     FM271000 29009KT P6SM VCSH SCT025 OVC060
      TEMPO 2714/2718 34013G20KT 5SM -SHRA BR BKN025 OVC040=


U.S. Dept. of Commerce
NOAA National Weather Service
1325 East West Highway
Silver Spring, MD 20910
E-mail: w-nws.webmaster@noaa.gov
Page last modified: May 16, 2007
NATIONAL WEATHER SERVICE: for Safety, for Work, for Fun - FOR LIFE